Time;durP1;ratioP1;P1;durP2;ratioP2;P2;SDS_P1;SDS_P2;PMS_P1;PMS_P2;Temp;Humidity;BMP_temperature;BMP_pressure;BME280_temperature;BME280_humidity;BME280_pressure;Samples;Min_cycle;Max_cycle;Signal;HPM_P1;HPM_P2
2022/04/06 00:01:49;;;;;;;29.02;5.88;;;;;;;8.93;100.00;100381.13;4968919;28;20031;-75
2022/04/06 00:04:15;;;;;;;30.02;5.80;;;;;;;8.93;100.00;100379.31;4960786;28;20058;-74
2022/04/06 00:06:40;;;;;;;25.92;5.75;;;;;;;8.92;100.00;100374.97;4973951;28;20038;-74
2022/04/06 00:09:06;;;;;;;27.33;5.55;;;;;;;8.92;100.00;100361.75;4960970;28;20034;-74
2022/04/06 00:11:32;;;;;;;20.00;5.10;;;;;;;8.92;100.00;100372.31;4971949;28;20073;-75
2022/04/06 00:13:58;;;;;;;26.75;5.43;;;;;;;8.92;100.00;100369.69;4960374;28;20403;-74
2022/04/06 00:16:24;;;;;;;26.35;6.00;;;;;;;8.95;100.00;100355.47;4971070;28;20033;-74
2022/04/06 00:18:51;;;;;;;20.27;4.68;;;;;;;8.98;100.00;100361.50;4961847;28;20031;-75
2022/04/06 00:21:17;;;;;;;26.38;5.57;;;;;;;8.95;100.00;100358.13;4974174;28;20027;-74
2022/04/06 00:23:43;;;;;;;25.30;5.35;;;;;;;8.94;100.00;100356.41;4962497;28;20029;-74
2022/04/06 00:26:08;;;;;;;21.83;5.00;;;;;;;8.99;100.00;100357.94;4959810;28;20030;-74
2022/04/06 00:28:34;;;;;;;23.27;5.55;;;;;;;9.05;100.00;100358.56;4967595;28;20035;-73
2022/04/06 00:30:59;;;;;;;22.58;4.88;;;;;;;9.06;100.00;100353.22;4928260;28;20035;-74
2022/04/06 00:33:24;;;;;;;18.55;4.88;;;;;;;9.04;100.00;100357.72;4933318;28;20030;-74
2022/04/06 00:35:51;;;;;;;26.40;4.90;;;;;;;9.08;100.00;100356.66;4967606;28;20121;-74
2022/04/06 00:38:17;;;;;;;20.95;4.97;;;;;;;9.08;100.00;100350.50;4978051;28;20479;-74
2022/04/06 00:40:42;;;;;;;23.33;4.70;;;;;;;9.09;100.00;100339.00;4947605;29;20031;-75
2022/04/06 00:43:10;;;;;;;24.48;5.10;;;;;;;9.07;100.00;100339.09;4930810;28;20030;-74
2022/04/06 00:45:38;;;;;;;24.10;5.00;;;;;;;9.10;100.00;100338.09;4964964;28;20110;-75
2022/04/06 00:48:04;;;;;;;19.98;4.78;;;;;;;9.11;100.00;100343.28;4974764;28;20434;-75
2022/04/06 00:50:30;;;;;;;21.33;4.75;;;;;;;9.17;100.00;100321.03;4958576;28;20034;-75
2022/04/06 00:52:57;;;;;;;25.83;4.57;;;;;;;9.16;100.00;100328.06;4970210;28;20372;-74
2022/04/06 00:55:34;;;;;;;19.60;4.05;;;;;;;9.24;100.00;100326.88;4971581;28;20057;-76
2022/04/06 00:58:00;;;;;;;17.05;3.47;;;;;;;9.27;100.00;100329.34;4966780;28;20030;-74
2022/04/06 01:00:26;;;;;;;16.48;3.75;;;;;;;9.34;98.63;100331.63;4960890;28;20037;-73
2022/04/06 01:02:52;;;;;;;18.80;3.85;;;;;;;9.39;97.61;100318.19;4972169;28;20022;-74
2022/04/06 01:05:17;;;;;;;17.02;3.63;;;;;;;9.41;96.32;100318.13;4972637;28;20061;-74
2022/04/06 01:07:48;;;;;;;14.15;3.60;;;;;;;9.44;96.26;100326.75;4970395;28;20067;-74
2022/04/06 01:10:13;;;;;;;14.20;2.97;;;;;;;9.44;94.82;100296.84;4971447;28;20034;-74
2022/04/06 01:12:40;;;;;;;17.60;3.40;;;;;;;9.46;94.38;100310.81;4958216;28;20093;-75
2022/04/06 01:15:07;;;;;;;17.33;2.95;;;;;;;9.45;94.50;100307.34;4966984;28;20030;-75
2022/04/06 01:17:35;;;;;;;11.27;2.65;;;;;;;9.41;95.14;100308.44;4963030;28;20026;-74
2022/04/06 01:20:05;;;;;;;11.02;3.03;;;;;;;9.40;95.75;100317.28;4960606;28;20404;-74
2022/04/06 01:22:30;;;;;;;10.93;2.83;;;;;;;9.39;94.62;100312.91;4941240;28;20451;-74
2022/04/06 01:24:56;;;;;;;15.60;2.90;;;;;;;9.39;95.14;100314.72;4970913;28;20483;-74
2022/04/06 01:27:21;;;;;;;13.10;3.40;;;;;;;9.35;95.62;100300.78;4972569;28;20039;-74
2022/04/06 01:29:50;;;;;;;14.45;3.60;;;;;;;9.27;96.67;100309.09;4948648;28;20150;-74
2022/04/06 01:32:18;;;;;;;19.05;3.63;;;;;;;9.24;97.20;100305.72;4969708;28;20069;-75
2022/04/06 01:34:45;;;;;;;14.60;3.33;;;;;;;9.18;98.01;100317.44;4970083;28;20026;-75
2022/04/06 01:37:12;;;;;;;14.60;3.40;;;;;;;9.15;98.65;100312.31;4944804;28;20050;-74
2022/04/06 01:39:39;;;;;;;19.92;5.45;;;;;;;9.11;99.51;100303.66;4963436;28;20034;-75
2022/04/06 01:42:06;;;;;;;20.33;4.15;;;;;;;9.06;99.83;100304.81;4939519;28;20038;-74
2022/04/06 01:44:32;;;;;;;20.05;4.13;;;;;;;9.08;99.92;100308.22;4958060;28;20042;-74
2022/04/06 01:47:02;;;;;;;19.73;3.75;;;;;;;9.04;100.00;100310.19;4955584;28;20039;-74
2022/04/06 01:52:12;;;;;;;16.35;4.35;;;;;;;9.02;100.00;100299.66;4966696;28;20523;-75
2022/04/06 01:54:38;;;;;;;15.93;4.03;;;;;;;8.99;100.00;100312.16;4969816;28;20058;-75
2022/04/06 01:57:04;;;;;;;15.65;3.60;;;;;;;8.97;100.00;100312.22;4944788;28;20069;-74
2022/04/06 01:59:29;;;;;;;16.08;4.00;;;;;;;8.91;100.00;100315.16;4976966;28;20027;-73
2022/04/06 02:01:55;;;;;;;15.57;3.78;;;;;;;8.90;100.00;100315.22;4967808;28;20492;-74
2022/04/06 02:04:20;;;;;;;15.55;3.50;;;;;;;8.92;100.00;100295.75;4968171;28;20035;-75
2022/04/06 02:06:46;;;;;;;19.88;3.90;;;;;;;8.96;100.00;100297.31;4938734;28;20485;-73
2022/04/06 02:09:11;;;;;;;15.40;3.25;;;;;;;8.94;99.06;100290.38;4955162;28;20034;-74
2022/04/06 02:11:38;;;;;;;14.05;3.00;;;;;;;8.99;98.29;100285.75;4956109;28;20035;-74
2022/04/06 02:14:05;;;;;;;13.68;2.90;;;;;;;9.01;96.89;100292.69;4919223;28;20031;-76
2022/04/06 02:16:30;;;;;;;13.38;2.90;;;;;;;9.02;94.91;100290.91;4956177;28;20034;-74
2022/04/06 02:18:56;;;;;;;10.77;2.72;;;;;;;9.08;93.81;100292.38;4953588;28;20038;-74
2022/04/06 02:21:22;;;;;;;13.93;2.60;;;;;;;9.10;92.72;100270.25;4969916;28;20031;-74
2022/04/06 02:23:47;;;;;;;9.77;2.33;;;;;;;9.12;91.85;100276.31;4976417;28;20137;-74
2022/04/06 02:26:14;;;;;;;10.40;2.47;;;;;;;9.12;91.29;100273.69;4953153;28;20079;-74
2022/04/06 02:28:39;;;;;;;9.55;2.35;;;;;;;9.14;90.79;100279.75;4973293;28;20073;-74
2022/04/06 02:31:04;;;;;;;8.93;2.45;;;;;;;9.12;90.87;100278.97;4954714;28;20043;-74
2022/04/06 02:33:30;;;;;;;10.32;2.83;;;;;;;9.09;90.28;100265.91;4952351;28;20548;-74
2022/04/06 02:35:55;;;;;;;10.25;2.40;;;;;;;9.10;89.70;100269.41;4968996;28;20022;-73
2022/04/06 02:38:20;;;;;;;14.23;2.58;;;;;;;9.05;89.81;100258.19;4974356;28;20077;-74
2022/04/06 02:40:46;;;;;;;7.40;2.13;;;;;;;9.01;89.67;100257.50;4972133;28;20038;-75
2022/04/06 02:43:12;;;;;;;14.52;2.83;;;;;;;8.95;89.80;100250.72;4966187;28;20086;-74
2022/04/06 02:45:38;;;;;;;9.82;2.38;;;;;;;8.93;89.80;100259.66;4936709;28;20390;-74
2022/04/06 02:48:05;;;;;;;5.85;2.00;;;;;;;8.88;89.68;100266.94;4958142;28;20031;-76
2022/04/06 02:50:30;;;;;;;9.07;2.15;;;;;;;8.85;89.99;100260.03;4952073;28;20042;-74
2022/04/06 02:52:56;;;;;;;9.40;2.35;;;;;;;8.80;89.84;100254.09;4972517;28;20030;-74
2022/04/06 02:55:21;;;;;;;8.15;2.53;;;;;;;8.79;89.28;100247.94;4937882;28;20141;-75
2022/04/06 02:57:47;;;;;;;9.82;2.20;;;;;;;8.79;89.47;100245.31;4952731;28;20391;-75
2022/04/06 03:00:13;;;;;;;7.65;2.30;;;;;;;8.74;90.08;100239.38;4973458;28;20053;-75
2022/04/06 03:02:39;;;;;;;8.55;1.95;;;;;;;8.74;90.50;100238.53;4952481;28;20027;-75
2022/04/06 03:05:05;;;;;;;7.72;2.45;;;;;;;8.69;90.35;100231.66;4974865;28;20049;-75
2022/04/06 03:07:30;;;;;;;8.23;2.50;;;;;;;8.65;90.46;100229.25;4972977;28;20034;-74
2022/04/06 03:09:55;;;;;;;6.57;1.92;;;;;;;8.63;90.80;100228.47;4952285;28;20117;-74
2022/04/06 03:12:21;;;;;;;10.15;2.15;;;;;;;8.58;91.61;100223.41;4954482;28;20039;-76
2022/04/06 03:14:46;;;;;;;5.40;1.95;;;;;;;8.56;91.85;100212.06;4941113;28;20026;-74
2022/04/06 03:17:15;;;;;;;8.27;1.73;;;;;;;8.56;91.52;100217.34;4971202;28;20031;-74
2022/04/06 03:19:41;;;;;;;9.93;2.20;;;;;;;8.56;91.72;100225.25;4939491;28;20272;-76
2022/04/06 03:22:06;;;;;;;12.52;2.13;;;;;;;8.58;91.79;100214.63;4971948;28;20027;-74
2022/04/06 03:24:32;;;;;;;8.88;2.15;;;;;;;8.52;91.91;100211.34;4971654;28;20038;-75
2022/04/06 03:26:57;;;;;;;15.30;2.53;;;;;;;8.52;91.89;100216.63;4977929;28;20033;-76
2022/04/06 03:29:22;;;;;;;10.25;2.28;;;;;;;8.48;92.76;100214.22;4956485;28;20586;-74
2022/04/06 03:31:48;;;;;;;11.13;2.13;;;;;;;8.47;92.23;100215.13;4953320;28;20039;-74
2022/04/06 03:34:13;;;;;;;10.38;2.20;;;;;;;8.44;92.14;100220.50;4957626;28;20056;-74
2022/04/06 03:36:39;;;;;;;11.35;2.05;;;;;;;8.45;92.20;100209.03;4939929;28;20035;-74
2022/04/06 03:39:04;;;;;;;9.85;2.05;;;;;;;8.49;91.91;100219.41;4969885;28;20817;-74
2022/04/06 03:41:29;;;;;;;12.18;2.38;;;;;;;8.48;92.40;100204.50;4963037;28;20383;-75
2022/04/06 03:43:55;;;;;;;13.05;2.10;;;;;;;8.51;91.82;100198.22;4974717;28;20034;-74
2022/04/06 03:46:20;;;;;;;5.97;1.67;;;;;;;8.53;91.28;100191.09;4953661;28;20435;-75
2022/04/06 03:48:45;;;;;;;9.77;2.03;;;;;;;8.59;91.05;100198.72;4963199;28;20394;-74
2022/04/06 03:51:11;;;;;;;12.88;2.70;;;;;;;8.57;91.37;100199.72;4947600;28;20498;-73
2022/04/06 03:53:36;;;;;;;11.23;2.00;;;;;;;8.52;91.92;100189.41;4948797;28;20138;-74
2022/04/06 03:56:02;;;;;;;13.80;2.20;;;;;;;8.51;92.48;100199.06;4968382;28;20502;-74
2022/04/06 03:58:29;;;;;;;7.32;1.92;;;;;;;8.44;92.78;100192.34;4971296;28;20491;-73
2022/04/06 04:00:54;;;;;;;9.82;2.55;;;;;;;8.33;93.99;100192.00;4954386;28;20118;-74
2022/04/06 04:03:20;;;;;;;19.00;3.00;;;;;;;8.26;95.22;100187.91;4937463;28;20121;-74
2022/04/06 04:05:45;;;;;;;17.52;2.85;;;;;;;8.23;96.64;100186.28;4969601;28;20399;-74
2022/04/06 04:08:10;;;;;;;16.00;2.85;;;;;;;8.20;98.17;100186.44;4969257;28;20038;-75
2022/04/06 04:10:36;;;;;;;13.70;3.00;;;;;;;8.14;99.37;100174.34;4967721;28;20039;-73
2022/04/06 04:13:02;;;;;;;20.38;4.10;;;;;;;8.20;100.00;100167.97;4940221;28;20066;-74
2022/04/06 04:15:27;;;;;;;22.45;3.55;;;;;;;8.23;100.00;100175.72;4923748;29;20443;-76
2022/04/06 04:17:52;;;;;;;19.38;2.78;;;;;;;8.22;100.00;100181.06;4950233;28;20031;-74
2022/04/06 04:20:18;;;;;;;13.18;3.10;;;;;;;8.21;100.00;100167.03;4962727;28;20030;-75
2022/04/06 04:22:43;;;;;;;19.13;3.17;;;;;;;8.20;100.00;100165.31;4936652;28;20072;-75
2022/04/06 04:25:10;;;;;;;14.43;2.85;;;;;;;8.20;100.00;100155.63;4937487;29;20037;-76
2022/04/06 04:27:36;;;;;;;12.93;2.75;;;;;;;8.23;100.00;100159.91;4948979;28;20031;-75
2022/04/06 04:30:02;;;;;;;15.40;3.10;;;;;;;8.31;100.00;100154.25;4976174;28;20047;-74
2022/04/06 04:32:27;;;;;;;14.93;2.90;;;;;;;8.34;100.00;100148.88;4970335;28;20041;-74
2022/04/06 04:34:53;;;;;;;17.90;3.03;;;;;;;8.39;99.85;100156.53;4973160;28;20114;-74
2022/04/06 04:37:18;;;;;;;19.23;3.20;;;;;;;8.42;99.43;100138.78;4973738;28;20057;-74
2022/04/06 04:39:43;;;;;;;19.40;3.33;;;;;;;8.45;98.55;100138.66;4956646;28;20031;-74
2022/04/06 04:42:09;;;;;;;14.05;2.90;;;;;;;8.44;98.48;100123.75;4934337;28;20038;-74
2022/04/06 04:44:35;;;;;;;12.82;2.50;;;;;;;8.48;98.50;100133.25;4959996;28;20027;-75
2022/04/06 04:47:00;;;;;;;16.23;2.85;;;;;;;8.54;98.42;100124.19;4938095;28;20414;-74
2022/04/06 04:49:26;;;;;;;16.65;2.95;;;;;;;8.51;98.42;100119.91;4967993;28;20113;-75
2022/04/06 04:51:51;;;;;;;16.55;3.38;;;;;;;8.57;98.15;100142.53;4956290;28;20047;-75
2022/04/06 04:54:17;;;;;;;9.77;3.00;;;;;;;8.58;97.86;100138.97;4981405;28;20043;-75
2022/04/06 04:56:43;;;;;;;16.50;3.03;;;;;;;8.60;97.72;100120.41;4972838;28;20071;-76
2022/04/06 04:59:09;;;;;;;11.38;2.83;;;;;;;8.66;97.33;100133.31;4928908;28;20106;-74
2022/04/06 05:01:34;;;;;;;12.88;2.58;;;;;;;8.68;97.63;100134.09;4967453;28;20432;-73
2022/04/06 05:04:00;;;;;;;14.35;2.63;;;;;;;8.66;98.09;100131.53;4933864;28;20035;-75
2022/04/06 05:06:25;;;;;;;15.63;2.80;;;;;;;8.70;98.15;100137.50;4920878;28;20398;-76
2022/04/06 05:08:51;;;;;;;19.73;2.70;;;;;;;8.70;98.10;100121.69;4963304;28;20046;-74
2022/04/06 05:11:16;;;;;;;16.50;2.95;;;;;;;8.70;98.75;100132.25;4964914;28;20034;-74
2022/04/06 05:13:42;;;;;;;18.23;3.15;;;;;;;8.70;98.68;100126.97;4968277;28;20106;-73
2022/04/06 05:16:07;;;;;;;11.27;2.67;;;;;;;8.68;98.43;100100.66;4952015;28;20066;-73
2022/04/06 05:18:33;;;;;;;16.83;3.28;;;;;;;8.69;99.15;100091.78;4920752;29;20528;-75
2022/04/06 05:20:58;;;;;;;17.23;3.03;;;;;;;8.73;99.27;100115.41;4948620;28;20043;-75
2022/04/06 05:23:24;;;;;;;16.65;2.80;;;;;;;8.71;99.16;100109.31;4980860;28;20424;-74
2022/04/06 05:25:49;;;;;;;16.08;2.60;;;;;;;8.69;99.51;100112.03;4942527;28;20027;-75
2022/04/06 05:28:18;;;;;;;14.27;2.85;;;;;;;8.69;98.66;100112.03;4958551;28;20047;-75
2022/04/06 05:30:46;;;;;;;13.52;2.70;;;;;;;8.72;98.71;100089.91;4971365;28;20023;-75
2022/04/06 05:33:12;;;;;;;19.92;2.83;;;;;;;8.76;97.52;100105.53;4963809;28;20247;-75
2022/04/06 05:35:37;;;;;;;10.27;1.98;;;;;;;8.79;96.84;100110.66;4959474;28;20072;-75
2022/04/06 05:38:03;;;;;;;15.35;2.95;;;;;;;8.78;96.33;100108.94;4952242;28;20569;-75
2022/04/06 05:40:28;;;;;;;11.38;2.55;;;;;;;8.78;96.60;100127.44;4968769;28;20062;-76
2022/04/06 05:42:54;;;;;;;14.02;3.05;;;;;;;8.79;96.79;100108.03;4949762;28;20410;-75
2022/04/06 05:45:19;;;;;;;17.63;2.75;;;;;;;8.80;95.19;100111.53;4943846;28;20032;-74
2022/04/06 05:47:45;;;;;;;15.40;2.47;;;;;;;8.84;95.22;100121.00;4963938;28;20028;-75
2022/04/06 05:50:12;;;;;;;19.77;3.22;;;;;;;8.85;94.93;100109.53;4971439;28;20042;-74
2022/04/06 05:52:38;;;;;;;14.77;2.35;;;;;;;8.85;94.04;100104.25;4974093;28;20101;-74
2022/04/06 05:55:05;;;;;;;13.75;2.33;;;;;;;8.83;93.63;100100.81;4932732;28;20063;-75
2022/04/06 05:57:30;;;;;;;9.32;2.30;;;;;;;8.87;92.20;100091.81;4950813;28;20030;-76
2022/04/06 05:59:55;;;;;;;14.82;2.45;;;;;;;8.93;91.76;100095.94;4959694;28;20085;-77
2022/04/06 06:02:23;;;;;;;10.05;2.10;;;;;;;8.95;90.65;100107.25;4971425;28;20146;-76
2022/04/06 06:04:49;;;;;;;12.75;2.38;;;;;;;9.00;90.57;100108.75;4953457;28;20062;-75
2022/04/06 06:07:14;;;;;;;11.98;2.70;;;;;;;8.98;90.75;100104.47;4985333;28;20057;-76
2022/04/06 06:09:40;;;;;;;13.20;2.75;;;;;;;9.00;90.33;100105.25;4976541;28;20070;-76
2022/04/06 06:12:05;;;;;;;16.70;2.83;;;;;;;8.97;89.85;100108.06;4975459;28;20113;-76
2022/04/06 06:14:31;;;;;;;11.85;2.38;;;;;;;9.00;89.70;100095.56;4961969;28;20038;-76
2022/04/06 06:16:58;;;;;;;12.75;2.35;;;;;;;8.99;89.70;100093.84;4978004;28;20028;-76
2022/04/06 06:19:24;;;;;;;15.13;2.70;;;;;;;9.02;89.67;100090.19;4958584;28;20039;-76
2022/04/06 06:21:49;;;;;;;12.43;2.45;;;;;;;9.04;89.91;100098.91;4958778;28;20029;-75
2022/04/06 06:24:15;;;;;;;13.75;2.30;;;;;;;9.07;89.56;100097.88;4977603;28;20030;-75
2022/04/06 06:26:43;;;;;;;9.95;2.20;;;;;;;9.10;89.22;100089.78;4976760;28;20030;-75
2022/04/06 06:29:09;;;;;;;12.80;1.88;;;;;;;9.18;88.42;100083.19;4957399;28;20029;-75
2022/04/06 06:31:35;;;;;;;12.95;2.60;;;;;;;9.24;88.49;100089.94;4969678;28;20383;-75
2022/04/06 06:34:01;;;;;;;12.35;2.35;;;;;;;9.27;88.93;100086.28;4975682;28;20506;-76
2022/04/06 06:36:27;;;;;;;10.02;2.20;;;;;;;9.30;88.70;100062.38;4961950;28;20094;-76
2022/04/06 06:38:53;;;;;;;8.90;2.17;;;;;;;9.29;88.76;100087.06;4975886;28;20378;-76
2022/04/06 06:41:20;;;;;;;18.27;4.10;;;;;;;9.29;89.90;100073.88;4975838;28;20093;-75
2022/04/06 06:43:48;;;;;;;12.00;2.15;;;;;;;9.25;90.26;100085.53;4963160;28;20038;-75
2022/04/06 06:46:15;;;;;;;10.70;2.13;;;;;;;9.18;93.18;100092.88;4971833;28;20034;-74
2022/04/06 06:48:40;;;;;;;15.57;2.85;;;;;;;9.22;93.86;100080.38;4958390;28;20042;-74
2022/04/06 06:51:06;;;;;;;15.45;3.13;;;;;;;9.23;95.42;100076.81;4974696;28;20038;-75
2022/04/06 06:53:31;;;;;;;13.40;2.70;;;;;;;9.16;97.10;100085.06;4974444;28;20042;-74
2022/04/06 06:55:57;;;;;;;14.20;2.92;;;;;;;9.13;97.30;100079.06;4978024;28;20522;-74
2022/04/06 06:58:22;;;;;;;6.22;1.70;;;;;;;9.08;98.19;100081.09;4992148;28;20042;-75
2022/04/06 07:00:47;;;;;;;10.32;2.33;;;;;;;9.03;98.97;100083.97;4993756;28;20501;-75
2022/04/06 07:03:13;;;;;;;11.93;2.80;;;;;;;9.00;99.71;100078.84;4975050;28;20433;-75
2022/04/06 07:05:38;;;;;;;9.43;2.55;;;;;;;8.91;100.00;100071.38;4977910;28;20391;-76
2022/04/06 07:08:04;;;;;;;11.98;2.63;;;;;;;8.82;100.00;100080.63;4956184;28;20042;-76
2022/04/06 07:10:29;;;;;;;9.52;2.20;;;;;;;8.74;100.00;100070.44;4977249;28;20026;-75
2022/04/06 07:12:56;;;;;;;13.48;2.80;;;;;;;8.78;100.00;100072.00;4991921;28;20053;-76
2022/04/06 07:15:22;;;;;;;17.67;3.55;;;;;;;8.82;100.00;100076.22;4956686;28;20049;-75
2022/04/06 07:17:58;;;;;;;14.93;2.78;;;;;;;8.81;100.00;100076.25;4941858;28;20146;-75
2022/04/06 07:20:25;;;;;;;14.20;3.40;;;;;;;8.84;100.00;100069.03;4970730;28;20035;-76
2022/04/06 07:22:51;;;;;;;14.75;3.35;;;;;;;8.84;100.00;100066.41;4972553;28;20027;-75
2022/04/06 07:25:17;;;;;;;12.40;2.80;;;;;;;8.71;100.00;100073.25;4969519;28;20035;-75
2022/04/06 07:27:42;;;;;;;12.30;2.90;;;;;;;8.58;100.00;100067.72;4981774;28;20064;-75
2022/04/06 07:30:11;;;;;;;19.80;3.60;;;;;;;8.48;100.00;100072.56;4994715;28;20045;-74
2022/04/06 07:32:37;;;;;;;21.33;4.13;;;;;;;8.43;100.00;100066.63;4994770;28;20034;-75
2022/04/06 07:35:04;;;;;;;17.40;3.30;;;;;;;8.39;100.00;100037.81;4960909;28;20026;-77
2022/04/06 07:37:40;;;;;;;19.48;4.05;;;;;;;8.35;100.00;100058.22;4974612;28;20098;-76
2022/04/06 07:40:08;;;;;;;19.50;3.55;;;;;;;8.37;100.00;100053.72;4957659;28;20027;-75
2022/04/06 07:42:35;;;;;;;18.20;3.30;;;;;;;8.44;100.00;100059.56;4974871;28;20058;-76
2022/04/06 07:45:02;;;;;;;22.00;4.65;;;;;;;8.46;100.00;100055.09;4957410;28;20027;-76
2022/04/06 07:47:30;;;;;;;19.05;3.42;;;;;;;8.50;100.00;100049.63;4973503;28;20035;-76
2022/04/06 07:49:56;;;;;;;18.45;3.67;;;;;;;8.56;100.00;100040.53;4954232;28;20026;-75
2022/04/06 07:52:22;;;;;;;18.85;3.80;;;;;;;8.60;100.00;100015.69;4976809;28;20105;-76
2022/04/06 07:54:47;;;;;;;22.52;3.40;;;;;;;8.66;100.00;100017.19;4974465;28;20387;-76
2022/04/06 07:57:13;;;;;;;22.58;3.67;;;;;;;8.72;100.00;100024.81;4974361;28;20411;-75
2022/04/06 07:59:38;;;;;;;16.25;3.38;;;;;;;8.76;100.00;100026.34;4987468;28;20034;-76
2022/04/06 08:02:03;;;;;;;18.58;4.07;;;;;;;8.82;100.00;100030.44;4992638;28;20394;-74
2022/04/06 08:04:29;;;;;;;19.17;4.70;;;;;;;8.84;100.00;100029.44;4990701;28;20046;-77
2022/04/06 08:06:54;;;;;;;20.88;3.28;;;;;;;8.87;100.00;100023.16;4990785;28;20042;-75
2022/04/06 08:09:19;;;;;;;20.70;4.25;;;;;;;8.87;100.00;100036.34;4969400;28;20054;-75
2022/04/06 08:11:45;;;;;;;16.33;3.35;;;;;;;8.94;100.00;100028.97;4962928;28;20097;-75
2022/04/06 08:14:10;;;;;;;25.13;5.43;;;;;;;8.97;100.00;100016.47;4981579;28;20026;-76
2022/04/06 08:16:35;;;;;;;18.73;3.80;;;;;;;9.02;100.00;100025.00;4970036;28;20042;-75
2022/04/06 08:19:01;;;;;;;18.08;3.47;;;;;;;9.01;100.00;100025.09;4970620;28;20034;-75
2022/04/06 08:21:27;;;;;;;16.80;3.25;;;;;;;8.96;100.00;100012.13;4931542;29;20130;-74
2022/04/06 08:23:53;;;;;;;18.70;3.50;;;;;;;8.96;100.00;100021.84;4971093;28;20039;-75
2022/04/06 08:26:18;;;;;;;26.17;4.28;;;;;;;8.91;100.00;100021.22;4963544;28;20049;-74
2022/04/06 08:28:44;;;;;;;18.08;3.58;;;;;;;8.85;100.00;100020.59;4952866;28;20509;-73
2022/04/06 08:31:09;;;;;;;17.98;3.53;;;;;;;8.80;100.00;100024.41;4973324;28;20109;-74
2022/04/06 08:33:36;;;;;;;21.15;3.83;;;;;;;8.77;100.00;100032.47;4973761;28;20033;-75
2022/04/06 08:36:04;;;;;;;17.90;4.07;;;;;;;8.71;100.00;100004.63;4956268;28;20065;-75
2022/04/06 08:38:29;;;;;;;19.77;3.78;;;;;;;8.78;100.00;100016.56;4953620;28;20157;-74
2022/04/06 08:40:55;;;;;;;21.27;3.72;;;;;;;8.82;100.00;100007.56;4937045;29;20483;-74
2022/04/06 08:43:22;;;;;;;21.38;4.45;;;;;;;8.89;100.00;100008.09;4983338;28;20389;-75
2022/04/06 08:45:47;;;;;;;20.73;4.13;;;;;;;8.94;100.00;99999.91;4956403;28;20143;-75
2022/04/06 08:48:13;;;;;;;17.75;3.95;;;;;;;8.97;100.00;99997.13;4972545;28;20027;-75
2022/04/06 08:50:39;;;;;;;20.65;3.92;;;;;;;8.96;100.00;100003.34;4939112;28;20046;-75
2022/04/06 08:53:05;;;;;;;18.05;3.75;;;;;;;9.04;100.00;100001.19;4970388;28;20042;-75
2022/04/06 08:55:32;;;;;;;18.52;3.15;;;;;;;9.11;100.00;99989.34;4972931;28;20428;-74
2022/04/06 08:57:59;;;;;;;17.92;3.55;;;;;;;9.15;100.00;99997.97;4940082;28;20130;-75
2022/04/06 09:00:25;;;;;;;19.10;3.80;;;;;;;9.26;100.00;99995.63;4988894;28;20030;-75
2022/04/06 09:02:51;;;;;;;19.98;3.75;;;;;;;9.35;100.00;100007.50;4992630;28;20084;-75
2022/04/06 09:05:21;;;;;;;18.55;3.35;;;;;;;9.39;100.00;99994.97;4971799;28;20026;-74
2022/04/06 09:07:51;;;;;;;21.67;4.25;;;;;;;9.43;100.00;99954.22;4975271;28;20084;-75
2022/04/06 09:10:28;;;;;;;23.58;3.90;;;;;;;9.52;100.00;99996.00;4973303;28;20394;-75
2022/04/06 09:13:15;;;;;;;17.63;3.30;;;;;;;9.48;100.00;99994.47;4992353;28;20026;-75
2022/04/06 09:15:42;;;;;;;19.20;3.47;;;;;;;9.54;100.00;100003.84;4969747;28;20533;-75
2022/04/06 09:18:07;;;;;;;16.02;3.08;;;;;;;9.60;100.00;99992.94;4992407;28;20478;-75
2022/04/06 09:20:33;;;;;;;18.90;3.97;;;;;;;9.65;100.00;100012.06;4990423;28;20064;-75
2022/04/06 09:23:03;;;;;;;21.17;3.63;;;;;;;9.71;100.00;100005.59;4974683;28;20019;-75
2022/04/06 09:25:37;;;;;;;19.98;3.83;;;;;;;9.80;100.00;99999.78;4957240;28;20113;-75
2022/04/06 09:28:20;;;;;;;19.00;3.60;;;;;;;9.86;100.00;100003.88;4952376;29;20031;-74
2022/04/06 09:30:46;;;;;;;20.20;3.63;;;;;;;9.82;100.00;99998.78;4957683;28;20027;-75
2022/04/06 09:33:18;;;;;;;17.13;3.53;;;;;;;9.80;100.00;100003.28;4920363;29;20031;-74
2022/04/06 09:35:43;;;;;;;18.85;3.33;;;;;;;9.83;100.00;100004.91;4947816;28;20122;-74
2022/04/06 09:38:22;;;;;;;17.30;3.40;;;;;;;9.99;100.00;99986.41;4953655;29;20110;-76
2022/04/06 09:40:47;;;;;;;16.60;4.10;;;;;;;10.21;100.00;99996.63;4957884;28;20101;-74
2022/04/06 09:43:27;;;;;;;17.85;3.70;;;;;;;10.50;100.00;99996.78;4972733;28;20475;-75
2022/04/06 09:48:56;;;;;;;17.25;3.80;;;;;;;10.56;100.00;99995.56;4991692;28;20049;-75
2022/04/06 09:51:23;;;;;;;18.38;3.67;;;;;;;10.57;100.00;99990.16;4990473;28;20023;-75
2022/04/06 09:53:50;;;;;;;21.67;4.03;;;;;;;10.69;100.00;99979.81;4974737;28;20065;-75
2022/04/06 09:56:19;;;;;;;23.75;3.58;;;;;;;11.00;100.00;99984.13;4990186;28;20054;-75
2022/04/06 09:58:45;;;;;;;13.60;3.55;;;;;;;11.18;100.00;99973.34;4974684;28;20022;-75
2022/04/06 10:01:14;;;;;;;16.38;3.45;;;;;;;11.37;99.66;99973.94;4981365;28;20039;-75
2022/04/06 10:03:43;;;;;;;14.80;3.33;;;;;;;11.74;98.22;99963.66;4954875;28;20542;-75
2022/04/06 10:06:10;;;;;;;16.05;3.85;;;;;;;11.47;97.80;99971.53;4974558;28;20030;-75
2022/04/06 10:08:38;;;;;;;17.45;3.70;;;;;;;11.31;98.29;99975.13;4983090;28;20027;-75
2022/04/06 10:11:04;;;;;;;18.42;3.13;;;;;;;11.06;98.96;99977.59;4956047;28;20022;-75
2022/04/06 10:13:30;;;;;;;18.70;4.07;;;;;;;10.95;100.00;99979.09;4970522;28;20419;-75
2022/04/06 10:15:57;;;;;;;16.13;4.07;;;;;;;10.89;100.00;99979.47;4982197;28;20045;-75
2022/04/06 10:18:25;;;;;;;24.08;4.72;;;;;;;10.79;100.00;99978.31;4955048;28;20027;-75
2022/04/06 10:21:10;;;;;;;18.27;3.65;;;;;;;10.75;100.00;99959.09;4974053;28;20038;-74
2022/04/06 10:24:05;;;;;;;19.70;3.22;;;;;;;10.71;100.00;99964.69;4953931;28;20045;-75
2022/04/06 10:26:46;;;;;;;19.60;4.30;;;;;;;10.64;100.00;99964.22;4984716;28;20034;-74
2022/04/06 10:29:12;;;;;;;19.40;3.40;;;;;;;10.67;100.00;99963.19;4962828;28;20441;-74
2022/04/06 10:31:37;;;;;;;20.52;4.43;;;;;;;10.62;100.00;99947.56;4958195;28;20066;-74
2022/04/06 10:34:22;;;;;;;14.48;3.40;;;;;;;10.75;100.00;99939.72;4968981;28;20047;-73
2022/04/06 10:37:11;;;;;;;12.00;3.10;;;;;;;10.92;99.18;99950.16;4947168;28;20019;-74
2022/04/06 10:39:53;;;;;;;14.18;3.55;;;;;;;11.06;99.07;99941.38;4991084;28;20596;-75
2022/04/06 10:42:27;;;;;;;;;;;;;;;11.21;96.82;99913.06;4977204;28;20019;-75
2022/04/06 10:44:53;;;;;;;10.73;2.75;;;;;;;11.45;96.79;99936.34;4972277;28;19918;-74
2022/04/06 10:47:21;;;;;;;13.73;2.60;;;;;;;11.55;94.74;99931.31;4988993;28;20034;-75
2022/04/06 10:50:12;;;;;;;11.70;3.03;;;;;;;11.45;95.80;99931.88;4990797;28;20031;-75
2022/04/06 10:52:39;;;;;;;10.05;3.38;;;;;;;11.45;95.86;99933.69;4983180;28;20042;-75
2022/04/06 10:55:23;;;;;;;11.07;3.22;;;;;;;11.36;95.99;99926.31;4975856;28;20621;-73
2022/04/06 10:58:05;;;;;;;11.77;3.10;;;;;;;11.22;96.53;99928.00;4977045;28;20062;-73
2022/04/06 11:00:31;;;;;;;8.30;2.80;;;;;;;11.26;96.00;99912.78;4978625;28;20375;-73
2022/04/06 11:03:18;;;;;;;9.55;2.80;;;;;;;11.20;95.71;99874.28;4959564;28;20015;-74
2022/04/06 11:05:49;;;;;;;9.77;2.80;;;;;;;11.08;96.02;99926.22;4958756;28;20023;-73
2022/04/06 11:11:39;;;;;;;13.13;3.50;;;;;;;10.94;97.02;99905.03;4975389;28;20509;-74
2022/04/06 11:14:05;;;;;;;9.40;3.13;;;;;;;10.95;96.87;99919.97;4974876;28;20033;-75
2022/04/06 11:16:46;;;;;;;10.57;3.85;;;;;;;10.90;97.32;99907.00;4979816;28;20084;-74
2022/04/06 11:19:14;;;;;;;9.65;3.03;;;;;;;10.91;97.74;99915.81;4994190;28;20121;-75
2022/04/06 11:21:46;;;;;;;10.90;3.03;;;;;;;10.84;98.08;99893.28;4994252;28;20120;-74
2022/04/06 11:24:16;;;;;;;11.68;3.13;;;;;;;10.70;98.20;99910.84;4992730;28;20040;-74
2022/04/06 11:26:41;;;;;;;10.38;2.78;;;;;;;10.78;98.28;99913.91;4956228;28;20031;-74
2022/04/06 11:29:06;;;;;;;11.50;2.70;;;;;;;10.77;98.33;99895.47;4957630;28;20053;-74
2022/04/06 11:31:32;;;;;;;10.02;3.22;;;;;;;10.79;98.31;99906.81;4978077;28;20057;-74
2022/04/06 11:33:57;;;;;;;13.60;3.83;;;;;;;10.79;100.00;99891.78;4973132;28;20358;-74